createdAt,value
2019-04-25T00:00:01.966Z,1004.49
2019-04-25T00:01:03.339Z,1004.54
2019-04-25T00:01:42.192Z,1004.56
2019-04-25T00:02:42.303Z,1004.54
2019-04-25T00:03:42.208Z,1004.58
2019-04-25T00:05:03.206Z,1004.58
2019-04-25T00:06:02.378Z,1004.52
2019-04-25T00:06:41.121Z,1004.52
2019-04-25T00:07:42.497Z,1004.52
2019-04-25T00:08:41.295Z,1004.56
2019-04-25T00:10:01.797Z,1004.55
2019-04-25T00:11:01.868Z,1004.51
2019-04-25T00:11:43.010Z,1004.55
2019-04-25T00:12:42.379Z,1004.62
2019-04-25T00:13:41.925Z,1004.64
2019-04-25T00:15:01.918Z,1004.65
2019-04-25T00:16:01.967Z,1004.70
2019-04-25T00:16:41.372Z,1004.76
2019-04-25T00:17:42.303Z,1004.78
2019-04-25T00:18:42.767Z,1004.79
2019-04-25T00:20:02.068Z,1004.75
2019-04-25T00:21:02.078Z,1004.71
2019-04-25T00:21:42.167Z,1004.72
2019-04-25T00:22:42.543Z,1004.67
2019-04-25T00:23:42.583Z,1004.64
2019-04-25T00:25:14.301Z,1004.67
2019-04-25T00:26:02.209Z,1004.71
2019-04-25T00:26:43.214Z,1004.65
2019-04-25T00:27:43.533Z,1004.69
2019-04-25T00:28:43.503Z,1004.67
2019-04-25T00:30:02.321Z,1004.75
2019-04-25T00:31:02.367Z,1004.79
2019-04-25T00:31:43.746Z,1004.79
2019-04-25T00:32:42.308Z,1004.87
2019-04-25T00:33:43.693Z,1004.85
2019-04-25T00:35:02.502Z,1004.91
2019-04-25T00:36:03.843Z,1004.91
2019-04-25T00:36:43.511Z,1004.87
2019-04-25T00:37:43.275Z,1004.77
2019-04-25T00:38:42.934Z,1004.75
2019-04-25T00:40:02.618Z,1004.79
2019-04-25T00:41:02.613Z,1004.70
2019-04-25T00:41:44.104Z,1004.75
2019-04-25T00:42:42.829Z,1004.88
2019-04-25T00:43:43.004Z,1004.86
2019-04-25T00:45:02.712Z,1004.89
2019-04-25T00:46:03.584Z,1004.88
2019-04-25T00:46:43.295Z,1004.84
2019-04-25T00:47:43.490Z,1004.70
2019-04-25T00:48:43.148Z,1004.64
2019-04-25T00:50:04.176Z,1004.62
2019-04-25T00:51:02.898Z,1004.60
2019-04-25T00:51:43.424Z,1004.62
2019-04-25T00:52:43.555Z,1004.66
2019-04-25T00:53:43.370Z,1004.65
2019-04-25T00:55:02.974Z,1004.73
2019-04-25T00:56:03.010Z,1004.84
2019-04-25T00:56:44.772Z,1004.89
2019-04-25T00:57:43.485Z,1004.86
2019-04-25T00:58:43.096Z,1004.81
2019-04-25T01:00:03.113Z,1004.79
2019-04-25T01:01:03.144Z,1004.76
2019-04-25T01:01:44.206Z,1004.80
2019-04-25T01:02:42.354Z,1004.86
2019-04-25T01:03:43.338Z,1004.86
2019-04-25T01:05:03.372Z,1004.88
2019-04-25T01:06:03.818Z,1004.96
2019-04-25T01:06:42.290Z,1004.93
2019-04-25T01:07:42.340Z,1004.95
2019-04-25T01:08:42.344Z,1004.95
2019-04-25T01:10:03.381Z,1004.97
2019-04-25T01:11:03.418Z,1005.01
2019-04-25T01:11:42.518Z,1004.99
2019-04-25T01:12:42.438Z,1004.99
2019-04-25T01:13:42.460Z,1004.95
2019-04-25T01:15:03.526Z,1005.00
2019-04-25T01:16:04.063Z,1004.96
2019-04-25T01:16:42.562Z,1004.94
2019-04-25T01:17:42.552Z,1004.98
2019-04-25T01:18:43.641Z,1004.98
2019-04-25T01:20:04.168Z,1004.97
2019-04-25T01:21:04.452Z,1004.99
2019-04-25T01:21:43.917Z,1004.98
2019-04-25T01:22:43.997Z,1005.03
2019-04-25T01:23:43.486Z,1005.04
2019-04-25T01:25:03.903Z,1005.09
2019-04-25T01:26:03.811Z,1005.09
2019-04-25T01:26:43.884Z,1005.08
2019-04-25T01:27:43.324Z,1005.12
2019-04-25T01:28:43.934Z,1005.10
2019-04-25T01:30:04.311Z,1005.09
2019-04-25T01:31:03.938Z,1005.08
2019-04-25T01:31:43.431Z,1005.06
2019-04-25T01:32:44.634Z,1005.08
2019-04-25T01:33:43.313Z,1005.06
2019-04-25T01:35:04.155Z,1005.06
2019-04-25T01:36:04.065Z,1005.04
2019-04-25T01:36:44.339Z,1005.03
2019-04-25T01:37:43.812Z,1004.99
2019-04-25T01:38:43.359Z,1004.96
2019-04-25T01:40:04.254Z,1004.98
2019-04-25T01:41:04.204Z,1005.04
2019-04-25T01:41:44.163Z,1005.01
2019-04-25T01:42:43.845Z,1005.01
2019-04-25T01:43:43.671Z,1005.02
2019-04-25T01:45:04.307Z,1005.02
2019-04-25T01:46:04.348Z,1004.98
2019-04-25T01:46:44.193Z,1005.02
2019-04-25T01:47:45.397Z,1004.96
2019-04-25T01:48:43.450Z,1005.00
2019-04-25T01:50:04.437Z,1004.99
2019-04-25T01:51:04.455Z,1004.98
2019-04-25T01:51:43.721Z,1005.05
2019-04-25T01:52:43.517Z,1005.01
2019-04-25T01:53:44.151Z,1005.06
2019-04-25T01:55:05.550Z,1005.09
2019-04-25T01:56:07.240Z,1005.11
2019-04-25T01:56:44.295Z,1005.14
2019-04-25T01:57:45.167Z,1005.14
2019-04-25T01:58:43.877Z,1005.11
2019-04-25T02:00:04.712Z,1005.09
2019-04-25T02:01:04.760Z,1005.10
2019-04-25T02:01:44.031Z,1005.09
2019-04-25T02:02:43.777Z,1005.08
2019-04-25T02:03:44.209Z,1005.06
2019-04-25T02:05:05.115Z,1005.02
2019-04-25T02:06:05.072Z,1005.00
2019-04-25T02:06:43.851Z,1004.98
2019-04-25T02:07:44.420Z,1004.90
2019-04-25T02:08:44.101Z,1004.88
2019-04-25T02:10:04.973Z,1004.88
2019-04-25T02:11:05.005Z,1004.90
2019-04-25T02:11:44.023Z,1004.92
2019-04-25T02:12:44.033Z,1004.93
2019-04-25T02:13:44.065Z,1004.96
2019-04-25T02:15:06.261Z,1004.92
2019-04-25T02:16:05.313Z,1004.82
2019-04-25T02:16:44.141Z,1004.83
2019-04-25T02:17:44.167Z,1004.78
2019-04-25T02:18:44.190Z,1004.81
2019-04-25T02:20:05.262Z,1004.86
2019-04-25T02:21:05.258Z,1004.96
2019-04-25T02:21:44.283Z,1005.07
2019-04-25T02:22:44.301Z,1005.20
2019-04-25T02:23:44.347Z,1005.29
2019-04-25T02:25:05.364Z,1005.29
2019-04-25T02:26:15.213Z,1005.39
2019-04-25T02:26:44.410Z,1005.38
2019-04-25T02:27:44.443Z,1005.41
2019-04-25T02:28:44.446Z,1005.44
2019-04-25T02:30:06.927Z,1005.48
2019-04-25T02:31:08.666Z,1005.55
2019-04-25T02:31:45.018Z,1005.59
2019-04-25T02:32:44.568Z,1005.62
2019-04-25T02:33:44.580Z,1005.62
2019-04-25T02:35:09.085Z,1005.64
2019-04-25T02:36:08.697Z,1005.71
2019-04-25T02:36:47.043Z,1005.74
2019-04-25T02:37:45.177Z,1005.76
2019-04-25T02:38:44.726Z,1005.79
2019-04-25T02:40:07.945Z,1005.82
2019-04-25T02:41:08.356Z,1005.86
2019-04-25T02:41:44.796Z,1005.84
2019-04-25T02:42:44.826Z,1005.92
2019-04-25T02:43:45.194Z,1005.89
2019-04-25T02:45:08.402Z,1005.92
2019-04-25T02:46:07.471Z,1005.88
2019-04-25T02:46:45.048Z,1005.89
2019-04-25T02:47:46.245Z,1005.87
2019-04-25T02:48:44.977Z,1005.91
2019-04-25T02:50:08.568Z,1005.92
2019-04-25T02:51:07.398Z,1005.97
2019-04-25T02:51:45.164Z,1005.92
2019-04-25T02:52:45.074Z,1005.90
2019-04-25T02:53:45.146Z,1005.87
2019-04-25T02:55:10.320Z,1005.83
2019-04-25T02:56:25.725Z,1005.74
2019-04-25T02:56:46.661Z,1005.66
2019-04-25T02:57:45.220Z,1005.65
2019-04-25T02:58:45.251Z,1005.63
2019-04-25T03:00:08.337Z,1005.63
2019-04-25T03:01:16.239Z,1005.64
2019-04-25T03:01:45.316Z,1005.64
2019-04-25T03:02:45.320Z,1005.63
2019-04-25T03:03:45.390Z,1005.63
2019-04-25T03:05:09.560Z,1005.69
2019-04-25T03:06:09.274Z,1005.71
2019-04-25T03:06:45.660Z,1005.72
2019-04-25T03:07:45.508Z,1005.77
2019-04-25T03:08:45.492Z,1005.81
2019-04-25T03:10:08.540Z,1005.87
2019-04-25T03:11:07.868Z,1005.84
2019-04-25T03:11:47.588Z,1005.88
2019-04-25T03:12:45.613Z,1005.98
2019-04-25T03:13:45.625Z,1005.98
2019-04-25T03:15:09.710Z,1006.02
2019-04-25T03:16:09.118Z,1006.07
2019-04-25T03:16:45.709Z,1006.08
2019-04-25T03:17:45.747Z,1006.11
2019-04-25T03:18:45.762Z,1006.10
2019-04-25T03:20:09.518Z,1006.07
2019-04-25T03:21:13.500Z,1006.07
2019-04-25T03:21:45.838Z,1006.10
2019-04-25T03:22:45.863Z,1006.08
2019-04-25T03:23:46.454Z,1006.10
2019-04-25T03:25:10.773Z,1006.15
2019-04-25T03:26:07.537Z,1006.11
2019-04-25T03:26:45.984Z,1006.19
2019-04-25T03:27:46.018Z,1006.19
2019-04-25T03:28:46.024Z,1006.27
2019-04-25T03:30:11.232Z,1006.25
2019-04-25T03:31:13.362Z,1006.20
2019-04-25T03:31:46.172Z,1006.16
2019-04-25T03:32:46.140Z,1006.10
2019-04-25T03:33:46.404Z,1006.12
2019-04-25T03:35:07.203Z,1006.13
2019-04-25T03:36:07.819Z,1006.15
2019-04-25T03:36:46.212Z,1006.18
2019-04-25T03:37:46.278Z,1006.19
2019-04-25T03:38:46.287Z,1006.17
2019-04-25T03:40:07.883Z,1006.19
2019-04-25T03:41:07.353Z,1006.22
2019-04-25T03:41:46.358Z,1006.25
2019-04-25T03:42:46.394Z,1006.26
2019-04-25T03:43:46.416Z,1006.26
2019-04-25T03:45:07.463Z,1006.28
2019-04-25T03:46:08.173Z,1006.31
2019-04-25T03:46:46.502Z,1006.38
2019-04-25T03:47:46.518Z,1006.44
2019-04-25T03:48:46.558Z,1006.49
2019-04-25T03:50:08.187Z,1006.54
2019-04-25T03:51:08.000Z,1006.47
2019-04-25T03:51:46.623Z,1006.41
2019-04-25T03:52:46.642Z,1006.40
2019-04-25T03:53:46.671Z,1006.44
2019-04-25T03:55:08.595Z,1006.49
2019-04-25T03:56:08.610Z,1006.49
2019-04-25T03:56:53.611Z,1006.58
2019-04-25T03:57:46.782Z,1006.55
2019-04-25T03:58:46.805Z,1006.59
2019-04-25T04:00:08.636Z,1006.60
2019-04-25T04:01:09.247Z,1006.57
2019-04-25T04:01:46.893Z,1006.66
2019-04-25T04:02:46.894Z,1006.65
2019-04-25T04:03:46.937Z,1006.73
2019-04-25T04:05:08.372Z,1006.72
2019-04-25T04:06:08.651Z,1006.72
2019-04-25T04:06:47.075Z,1006.79
2019-04-25T04:07:47.039Z,1006.81
2019-04-25T04:08:47.103Z,1006.85
2019-04-25T04:10:08.112Z,1006.88
2019-04-25T04:11:08.687Z,1006.92
2019-04-25T04:11:47.163Z,1006.90
2019-04-25T04:12:47.165Z,1006.94
2019-04-25T04:13:47.197Z,1006.98
2019-04-25T04:15:08.325Z,1007.04
2019-04-25T04:16:08.473Z,1007.08
2019-04-25T04:16:47.269Z,1007.10
2019-04-25T04:17:47.301Z,1007.16
2019-04-25T04:18:47.329Z,1007.18
2019-04-25T04:20:08.858Z,1007.21
2019-04-25T04:21:08.971Z,1007.26
2019-04-25T04:21:47.393Z,1007.29
2019-04-25T04:22:47.432Z,1007.30
2019-04-25T04:23:47.455Z,1007.31
2019-04-25T04:25:08.503Z,1007.33
2019-04-25T04:26:09.494Z,1007.35
2019-04-25T04:26:47.531Z,1007.35
2019-04-25T04:27:47.545Z,1007.33
2019-04-25T04:28:47.583Z,1007.40
2019-04-25T04:30:08.621Z,1007.45
2019-04-25T04:31:08.673Z,1007.47
2019-04-25T04:31:47.672Z,1007.46
2019-04-25T04:32:47.689Z,1007.49
2019-04-25T04:33:47.725Z,1007.50
2019-04-25T04:35:08.755Z,1007.51
2019-04-25T04:36:08.799Z,1007.51
2019-04-25T04:36:47.788Z,1007.54
2019-04-25T04:37:47.811Z,1007.55
2019-04-25T04:38:47.936Z,1007.58
2019-04-25T04:40:09.618Z,1007.57
2019-04-25T04:41:09.706Z,1007.66
2019-04-25T04:41:47.919Z,1007.67
2019-04-25T04:42:47.953Z,1007.73
2019-04-25T04:43:47.988Z,1007.75
2019-04-25T04:45:10.110Z,1007.74
2019-04-25T04:46:09.992Z,1007.79
2019-04-25T04:46:48.069Z,1007.78
2019-04-25T04:47:48.074Z,1007.80
2019-04-25T04:48:48.127Z,1007.80
2019-04-25T04:50:09.155Z,1007.84
2019-04-25T04:51:09.183Z,1007.84
2019-04-25T04:51:48.143Z,1007.88
2019-04-25T04:52:48.232Z,1007.92
2019-04-25T04:53:48.238Z,1007.98
2019-04-25T04:55:11.198Z,1007.97
2019-04-25T04:56:09.677Z,1008.00
2019-04-25T04:56:48.311Z,1007.99
2019-04-25T04:57:48.345Z,1008.05
2019-04-25T04:58:48.350Z,1008.03
2019-04-25T05:00:10.931Z,1008.07
2019-04-25T05:01:10.227Z,1008.07
2019-04-25T05:01:48.453Z,1008.03
2019-04-25T05:02:48.458Z,1008.00
2019-04-25T05:03:48.494Z,1008.06
2019-04-25T05:05:09.513Z,1008.07
2019-04-25T05:06:09.556Z,1008.10
2019-04-25T05:06:48.551Z,1008.10
2019-04-25T05:07:48.622Z,1008.08
2019-04-25T05:08:48.631Z,1008.07
2019-04-25T05:10:10.427Z,1008.10
2019-04-25T05:11:09.710Z,1008.12
2019-04-25T05:11:48.702Z,1008.10
2019-04-25T05:12:48.720Z,1008.09
2019-04-25T05:13:48.760Z,1008.11
2019-04-25T05:15:09.802Z,1008.12
2019-04-25T05:16:09.820Z,1008.13
2019-04-25T05:16:49.590Z,1008.19
2019-04-25T05:17:48.855Z,1008.24
2019-04-25T05:18:48.868Z,1008.25
2019-04-25T05:20:09.934Z,1008.27
2019-04-25T05:21:09.952Z,1008.27
2019-04-25T05:21:48.975Z,1008.27
2019-04-25T05:22:48.978Z,1008.26
2019-04-25T05:23:49.022Z,1008.26
2019-04-25T05:25:10.064Z,1008.30
2019-04-25T05:26:10.106Z,1008.35
2019-04-25T05:26:49.094Z,1008.36
2019-04-25T05:27:59.557Z,1008.39
2019-04-25T05:28:49.157Z,1008.39
2019-04-25T05:30:10.198Z,1008.40
2019-04-25T05:31:10.205Z,1008.48
2019-04-25T05:31:49.212Z,1008.45
2019-04-25T05:32:49.292Z,1008.47
2019-04-25T05:33:49.264Z,1008.50
2019-04-25T05:35:10.315Z,1008.54
2019-04-25T05:36:10.332Z,1008.55
2019-04-25T05:36:49.341Z,1008.57
2019-04-25T05:37:49.368Z,1008.55
2019-04-25T05:38:49.392Z,1008.60
2019-04-25T05:40:10.444Z,1008.66
2019-04-25T05:41:10.492Z,1008.69
2019-04-25T05:41:49.466Z,1008.67
2019-04-25T05:42:49.508Z,1008.70
2019-04-25T05:43:49.551Z,1008.71
2019-04-25T05:45:10.562Z,1008.72
2019-04-25T05:46:10.586Z,1008.71
2019-04-25T05:46:49.593Z,1008.75
2019-04-25T05:47:49.633Z,1008.76
2019-04-25T05:48:49.663Z,1008.77
2019-04-25T05:50:10.710Z,1008.81
2019-04-25T05:51:10.722Z,1008.83
2019-04-25T05:51:49.732Z,1008.86
2019-04-25T05:52:49.746Z,1008.85
2019-04-25T05:53:49.776Z,1008.85
2019-04-25T05:55:10.835Z,1008.87
2019-04-25T05:56:10.856Z,1008.86
2019-04-25T05:56:49.847Z,1008.79
2019-04-25T05:57:50.232Z,1008.77
2019-04-25T05:58:49.935Z,1008.79
2019-04-25T06:00:10.976Z,1008.79
2019-04-25T06:01:10.982Z,1008.80
2019-04-25T06:01:50.007Z,1008.82
2019-04-25T06:02:50.015Z,1008.83
2019-04-25T06:03:50.047Z,1008.86
2019-04-25T06:05:11.114Z,1008.85
2019-04-25T06:06:11.120Z,1008.91
2019-04-25T06:06:50.136Z,1008.95
2019-04-25T06:07:50.155Z,1008.97
2019-04-25T06:08:50.181Z,1008.99
2019-04-25T06:10:11.256Z,1009.03
2019-04-25T06:11:11.277Z,1009.05
2019-04-25T06:11:50.293Z,1009.07
2019-04-25T06:12:50.288Z,1009.06
2019-04-25T06:13:50.281Z,1009.07
2019-04-25T06:15:12.838Z,1009.07
2019-04-25T06:16:11.454Z,1009.07
2019-04-25T06:16:50.397Z,1009.06
2019-04-25T06:17:50.428Z,1009.09
2019-04-25T06:18:50.437Z,1009.06
2019-04-25T06:20:11.481Z,1009.04
2019-04-25T06:21:13.203Z,1009.07
2019-04-25T06:21:50.531Z,1009.07
2019-04-25T06:22:50.543Z,1009.08
2019-04-25T06:23:50.640Z,1009.10
2019-04-25T06:25:13.735Z,1009.08
2019-04-25T06:26:22.918Z,1009.09
2019-04-25T06:26:50.621Z,1009.13
2019-04-25T06:27:56.568Z,1009.17
2019-04-25T06:28:56.994Z,1009.16
2019-04-25T06:30:11.731Z,1009.20
2019-04-25T06:31:11.767Z,1009.21
2019-04-25T06:31:50.781Z,1009.23
2019-04-25T06:32:50.815Z,1009.24
2019-04-25T06:33:50.856Z,1009.28
2019-04-25T06:35:11.861Z,1009.29
2019-04-25T06:36:11.916Z,1009.30
2019-04-25T06:36:50.900Z,1009.31
2019-04-25T06:37:50.933Z,1009.31
2019-04-25T06:38:50.957Z,1009.33
2019-04-25T06:40:13.553Z,1009.33
2019-04-25T06:41:13.350Z,1009.32
2019-04-25T06:41:51.041Z,1009.30
2019-04-25T06:42:51.085Z,1009.35
2019-04-25T06:43:51.093Z,1009.34
2019-04-25T06:45:13.483Z,1009.34
2019-04-25T06:46:13.914Z,1009.32
2019-04-25T06:46:51.180Z,1009.29
2019-04-25T06:47:51.208Z,1009.32
2019-04-25T06:48:51.234Z,1009.30
2019-04-25T06:50:13.656Z,1009.33
2019-04-25T06:51:13.442Z,1009.34
2019-04-25T06:51:51.306Z,1009.37
2019-04-25T06:52:51.355Z,1009.36
2019-04-25T06:53:51.352Z,1009.36
2019-04-25T06:55:13.988Z,1009.38
2019-04-25T06:56:13.701Z,1009.39
2019-04-25T06:56:51.487Z,1009.41
2019-04-25T06:57:51.460Z,1009.44
2019-04-25T06:58:51.490Z,1009.44
2019-04-25T07:00:13.932Z,1009.47
2019-04-25T07:01:13.515Z,1009.46
2019-04-25T07:01:51.568Z,1009.48
2019-04-25T07:02:53.138Z,1009.46
2019-04-25T07:03:51.608Z,1009.50
2019-04-25T07:05:24.503Z,1009.46
2019-04-25T07:06:12.968Z,1009.45
2019-04-25T07:06:53.415Z,1009.43
2019-04-25T07:07:53.385Z,1009.41
2019-04-25T07:08:51.746Z,1009.45
2019-04-25T07:10:13.325Z,1009.44
2019-04-25T07:11:13.994Z,1009.43
2019-04-25T07:11:51.828Z,1009.47
2019-04-25T07:12:51.842Z,1009.49
2019-04-25T07:13:53.584Z,1009.53
2019-04-25T07:15:13.761Z,1009.54
2019-04-25T07:16:13.375Z,1009.56
2019-04-25T07:16:53.211Z,1009.57
2019-04-25T07:17:53.945Z,1009.58
2019-04-25T07:18:53.334Z,1009.59
2019-04-25T07:20:13.828Z,1009.62
2019-04-25T07:21:14.223Z,1009.64
2019-04-25T07:21:52.092Z,1009.66
2019-04-25T07:22:53.660Z,1009.67
2019-04-25T07:23:52.142Z,1009.69
2019-04-25T07:25:13.248Z,1009.69
2019-04-25T07:26:13.537Z,1009.69
2019-04-25T07:26:53.456Z,1009.71
2019-04-25T07:27:53.462Z,1009.73
2019-04-25T07:28:53.832Z,1009.72
2019-04-25T07:30:13.513Z,1009.76
2019-04-25T07:31:13.396Z,1009.70
2019-04-25T07:31:53.579Z,1009.72
2019-04-25T07:32:53.981Z,1009.73
2019-04-25T07:33:53.236Z,1009.77
2019-04-25T07:35:13.581Z,1009.75
2019-04-25T07:36:13.827Z,1009.80
2019-04-25T07:36:53.459Z,1009.79
2019-04-25T07:37:53.917Z,1009.79
2019-04-25T07:39:05.152Z,1009.82
2019-04-25T07:40:13.949Z,1009.81
2019-04-25T07:41:14.704Z,1009.85
2019-04-25T07:41:54.008Z,1009.86
2019-04-25T07:42:53.609Z,1009.89
2019-04-25T07:43:53.305Z,1009.93
2019-04-25T07:45:14.077Z,1009.93
2019-04-25T07:46:13.768Z,1009.93
2019-04-25T07:46:54.177Z,1009.92
2019-04-25T07:47:54.043Z,1009.88
2019-04-25T07:48:53.541Z,1009.93
2019-04-25T07:50:15.261Z,1009.92
2019-04-25T07:51:16.317Z,1009.92
2019-04-25T07:51:53.700Z,1009.91
2019-04-25T07:52:53.854Z,1009.91
2019-04-25T07:53:53.487Z,1009.93
2019-04-25T07:55:13.971Z,1009.96
2019-04-25T07:56:14.309Z,1009.94
2019-04-25T07:56:54.836Z,1009.96
2019-04-25T07:57:54.040Z,1009.97
2019-04-25T07:58:54.744Z,1010.01
2019-04-25T08:00:14.087Z,1010.00
2019-04-25T08:01:14.160Z,1010.01
2019-04-25T08:01:53.525Z,1009.99
2019-04-25T08:02:54.293Z,1010.00
2019-04-25T08:03:53.746Z,1009.97
2019-04-25T08:05:14.490Z,1010.01
2019-04-25T08:06:14.283Z,1009.99
2019-04-25T08:06:54.264Z,1010.00
2019-04-25T08:07:53.606Z,1010.05
2019-04-25T08:08:54.468Z,1010.05
2019-04-25T08:10:14.361Z,1010.09
2019-04-25T08:11:14.389Z,1010.11
2019-04-25T08:11:54.848Z,1010.10
2019-04-25T08:12:53.591Z,1010.10
2019-04-25T08:13:53.463Z,1010.10
2019-04-25T08:15:14.484Z,1010.10
2019-04-25T08:16:14.620Z,1010.10
2019-04-25T08:16:53.797Z,1010.11
2019-04-25T08:17:54.032Z,1010.09
2019-04-25T08:18:53.962Z,1010.10
2019-04-25T08:20:15.220Z,1010.09
2019-04-25T08:21:15.353Z,1010.14
2019-04-25T08:21:53.738Z,1010.10
2019-04-25T08:22:58.462Z,1010.11
2019-04-25T08:23:53.707Z,1010.15
2019-04-25T08:25:14.776Z,1010.15
2019-04-25T08:26:14.789Z,1010.17
2019-04-25T08:26:53.781Z,1010.25
2019-04-25T08:27:55.124Z,1010.25
2019-04-25T08:28:57.166Z,1010.30
2019-04-25T08:30:14.878Z,1010.29
2019-04-25T08:31:14.948Z,1010.28
2019-04-25T08:31:53.939Z,1010.28
2019-04-25T08:32:54.136Z,1010.27
2019-04-25T08:33:53.995Z,1010.27
2019-04-25T08:35:16.084Z,1010.32
2019-04-25T08:36:15.047Z,1010.31
2019-04-25T08:36:54.323Z,1010.30
2019-04-25T08:37:54.114Z,1010.30
2019-04-25T08:38:55.361Z,1010.34
2019-04-25T08:40:15.175Z,1010.31
2019-04-25T08:41:15.188Z,1010.38
2019-04-25T08:41:54.196Z,1010.37
2019-04-25T08:42:54.226Z,1010.35
2019-04-25T08:43:54.519Z,1010.36
2019-04-25T08:45:15.290Z,1010.38
2019-04-25T08:46:15.325Z,1010.37
2019-04-25T08:46:54.337Z,1010.38
2019-04-25T08:47:54.349Z,1010.35
2019-04-25T08:48:54.409Z,1010.31
2019-04-25T08:50:27.027Z,1010.34
2019-04-25T08:51:15.465Z,1010.34
2019-04-25T08:51:55.725Z,1010.29
2019-04-25T08:52:54.504Z,1010.26
2019-04-25T08:53:54.523Z,1010.26
2019-04-25T08:55:15.573Z,1010.28
2019-04-25T08:56:15.623Z,1010.27
2019-04-25T08:56:54.695Z,1010.19
2019-04-25T08:57:54.623Z,1010.21
2019-04-25T08:59:03.621Z,1010.30
2019-04-25T09:00:15.716Z,1010.33
2019-04-25T09:01:15.735Z,1010.37
2019-04-25T09:01:54.763Z,1010.40
2019-04-25T09:02:54.763Z,1010.46
2019-04-25T09:03:54.807Z,1010.40
2019-04-25T09:05:16.498Z,1010.41
2019-04-25T09:06:15.963Z,1010.43
2019-04-25T09:06:55.278Z,1010.38
2019-04-25T09:07:54.914Z,1010.34
2019-04-25T09:08:54.946Z,1010.34
2019-04-25T09:10:15.983Z,1010.32
2019-04-25T09:11:16.019Z,1010.36
2019-04-25T09:11:55.049Z,1010.32
2019-04-25T09:12:55.027Z,1010.39
2019-04-25T09:13:55.087Z,1010.43
2019-04-25T09:15:16.121Z,1010.46
2019-04-25T09:16:16.165Z,1010.47
2019-04-25T09:16:55.142Z,1010.48
2019-04-25T09:17:55.197Z,1010.53
2019-04-25T09:18:55.222Z,1010.46
2019-04-25T09:20:17.534Z,1010.44
2019-04-25T09:21:16.296Z,1010.43
2019-04-25T09:21:55.314Z,1010.43
2019-04-25T09:22:55.311Z,1010.42
2019-04-25T09:23:55.612Z,1010.40
2019-04-25T09:25:16.422Z,1010.37
2019-04-25T09:26:16.425Z,1010.37
2019-04-25T09:26:55.504Z,1010.39
2019-04-25T09:27:55.472Z,1010.45
2019-04-25T09:28:55.495Z,1010.47
2019-04-25T09:30:16.546Z,1010.47
2019-04-25T09:31:16.546Z,1010.49
2019-04-25T09:31:55.574Z,1010.49
2019-04-25T09:32:55.606Z,1010.50
2019-04-25T09:33:55.653Z,1010.44
2019-04-25T09:35:16.690Z,1010.48
2019-04-25T09:36:16.795Z,1010.47
2019-04-25T09:36:55.900Z,1010.48
2019-04-25T09:37:55.736Z,1010.47
2019-04-25T09:38:55.772Z,1010.48
2019-04-25T09:40:16.828Z,1010.48
2019-04-25T09:41:16.856Z,1010.48
2019-04-25T09:41:55.922Z,1010.46
2019-04-25T09:42:55.926Z,1010.38
2019-04-25T09:43:55.938Z,1010.39
2019-04-25T09:45:16.977Z,1010.40
2019-04-25T09:46:17.001Z,1010.39
2019-04-25T09:46:55.989Z,1010.39
2019-04-25T09:47:56.020Z,1010.49
2019-04-25T09:48:56.058Z,1010.51
2019-04-25T09:50:17.610Z,1010.43
2019-04-25T09:51:17.134Z,1010.56
2019-04-25T09:51:56.150Z,1010.55
2019-04-25T09:52:56.144Z,1010.48
2019-04-25T09:53:56.211Z,1010.46
2019-04-25T09:55:17.254Z,1010.41
2019-04-25T09:56:17.271Z,1010.43
2019-04-25T09:56:56.806Z,1010.46
2019-04-25T09:57:56.318Z,1010.61
2019-04-25T09:58:56.357Z,1010.56
2019-04-25T10:00:17.384Z,1010.55
2019-04-25T10:01:17.439Z,1010.59
2019-04-25T10:01:56.433Z,1010.58
2019-04-25T10:02:56.485Z,1010.59
2019-04-25T10:03:56.490Z,1010.53
2019-04-25T10:05:17.550Z,1010.49
2019-04-25T10:06:17.562Z,1010.47
2019-04-25T10:06:56.621Z,1010.47
2019-04-25T10:07:56.618Z,1010.33
2019-04-25T10:08:56.643Z,1010.46
2019-04-25T10:10:17.678Z,1010.47
2019-04-25T10:11:17.712Z,1010.47
2019-04-25T10:11:56.767Z,1010.44
2019-04-25T10:12:56.784Z,1010.43
2019-04-25T10:13:56.783Z,1010.39
2019-04-25T10:15:17.825Z,1010.49
2019-04-25T10:16:17.877Z,1010.38
2019-04-25T10:16:56.877Z,1010.39
2019-04-25T10:17:56.915Z,1010.47
2019-04-25T10:18:56.967Z,1010.45
2019-04-25T10:20:18.037Z,1010.42
2019-04-25T10:21:18.049Z,1010.37
2019-04-25T10:21:57.059Z,1010.38
2019-04-25T10:22:57.090Z,1010.35
2019-04-25T10:23:57.119Z,1010.32
2019-04-25T10:25:18.169Z,1010.28
2019-04-25T10:26:18.193Z,1010.33
2019-04-25T10:26:57.213Z,1010.35
2019-04-25T10:27:57.249Z,1010.40
2019-04-25T10:28:57.289Z,1010.39
2019-04-25T10:30:23.116Z,1010.42
2019-04-25T10:31:18.445Z,1010.44
2019-04-25T10:31:57.359Z,1010.38
2019-04-25T10:32:57.419Z,1010.39
2019-04-25T10:33:57.441Z,1010.37
2019-04-25T10:35:18.473Z,1010.40
2019-04-25T10:36:18.479Z,1010.40
2019-04-25T10:36:57.519Z,1010.42
2019-04-25T10:37:57.562Z,1010.43
2019-04-25T10:39:07.598Z,1010.40
2019-04-25T10:40:18.634Z,1010.37
2019-04-25T10:41:21.458Z,1010.16
2019-04-25T10:41:57.705Z,1010.06
2019-04-25T10:42:57.703Z,1010.08
2019-04-25T10:43:57.749Z,1010.26
2019-04-25T10:45:23.166Z,1010.36
2019-04-25T10:46:18.854Z,1010.38
2019-04-25T10:46:57.854Z,1010.37
2019-04-25T10:47:57.914Z,1010.36
2019-04-25T10:48:57.923Z,1010.36
2019-04-25T10:50:18.992Z,1010.36
2019-04-25T10:51:19.022Z,1010.33
2019-04-25T10:51:58.036Z,1010.24
2019-04-25T10:52:58.076Z,1010.22
2019-04-25T10:53:58.136Z,1010.19
2019-04-25T10:55:19.154Z,1010.19
2019-04-25T10:56:19.220Z,1010.21
2019-04-25T10:56:58.288Z,1010.17
2019-04-25T10:57:58.230Z,1010.17
2019-04-25T10:58:58.300Z,1010.21
2019-04-25T11:00:19.370Z,1010.16
2019-04-25T11:01:19.383Z,1010.19
2019-04-25T11:01:58.396Z,1010.21
2019-04-25T11:02:58.434Z,1010.21
2019-04-25T11:03:58.491Z,1010.21
2019-04-25T11:05:19.520Z,1010.22
2019-04-25T11:06:19.551Z,1010.22
2019-04-25T11:06:58.585Z,1010.15
2019-04-25T11:07:58.588Z,1010.13
2019-04-25T11:08:58.652Z,1010.12
2019-04-25T11:10:19.710Z,1010.12
2019-04-25T11:11:19.752Z,1010.11
2019-04-25T11:11:58.779Z,1010.07
2019-04-25T11:12:58.862Z,1010.05
2019-04-25T11:13:58.841Z,1010.03
2019-04-25T11:15:19.878Z,1010.03
2019-04-25T11:16:19.948Z,1010.01
2019-04-25T11:16:59.000Z,1010.02
2019-04-25T11:17:58.996Z,1010.00
2019-04-25T11:18:59.054Z,1010.00
2019-04-25T11:20:20.096Z,1009.93
2019-04-25T11:21:20.160Z,1009.93
2019-04-25T11:21:59.146Z,1009.88
2019-04-25T11:22:59.210Z,1009.85
2019-04-25T11:23:59.246Z,1009.85
2019-04-25T11:25:20.320Z,1009.86
2019-04-25T11:26:20.329Z,1009.88
2019-04-25T11:26:59.365Z,1009.88
2019-04-25T11:27:59.475Z,1009.85
2019-04-25T11:28:59.478Z,1009.85
2019-04-25T11:30:20.466Z,1009.87
2019-04-25T11:31:20.544Z,1009.86
2019-04-25T11:31:59.566Z,1009.83
2019-04-25T11:32:59.552Z,1009.82
2019-04-25T11:33:59.615Z,1009.82
2019-04-25T11:35:20.687Z,1009.82
2019-04-25T11:36:20.718Z,1009.76
2019-04-25T11:36:59.849Z,1009.76
2019-04-25T11:37:59.793Z,1009.76
2019-04-25T11:38:59.834Z,1009.81
2019-04-25T11:40:20.898Z,1009.74
2019-04-25T11:41:20.933Z,1009.76
2019-04-25T11:41:59.936Z,1009.70
2019-04-25T11:42:59.987Z,1009.77
2019-04-25T11:44:00.508Z,1009.73
2019-04-25T11:45:21.238Z,1009.71
2019-04-25T11:46:21.199Z,1009.67
2019-04-25T11:47:00.137Z,1009.64
2019-04-25T11:48:00.151Z,1009.63
2019-04-25T11:49:00.166Z,1009.66
2019-04-25T11:50:21.238Z,1009.58
2019-04-25T11:51:21.276Z,1009.65
2019-04-25T11:52:00.258Z,1009.60
2019-04-25T11:53:00.952Z,1009.62
2019-04-25T11:54:00.373Z,1009.63
2019-04-25T11:55:21.397Z,1009.60
2019-04-25T11:56:21.435Z,1009.59
2019-04-25T11:57:00.405Z,1009.58
2019-04-25T11:58:00.463Z,1009.63
2019-04-25T11:59:00.502Z,1009.59
2019-04-25T12:00:22.365Z,1009.57
2019-04-25T12:01:21.575Z,1009.62
2019-04-25T12:02:00.591Z,1009.58
2019-04-25T12:03:00.622Z,1009.59
2019-04-25T12:04:00.651Z,1009.56
2019-04-25T12:05:23.403Z,1009.56